Time;durP1;ratioP1;P1;durP2;ratioP2;P2;SDS_P1;SDS_P2;PMS_P1;PMS_P2;Temp;Humidity;BMP_temperature;BMP_pressure;BME280_temperature;BME280_humidity;BME280_pressure;Samples;Min_cycle;Max_cycle;Signal;HPM_P1;HPM_P2
2021/06/22 00:00:17;;;;;;;11.18;7.80;;;19.20;99.90;;;;;;5085987;28;20031;-73
2021/06/22 00:02:44;;;;;;;14.63;9.15;;;19.10;99.90;;;;;;5073061;28;20342;-74
2021/06/22 00:05:10;;;;;;;10.50;7.07;;;19.00;99.90;;;;;;5092117;28;20099;-74
2021/06/22 00:07:36;;;;;;;12.82;7.20;;;18.90;99.90;;;;;;5092046;28;20223;-73
2021/06/22 00:10:06;;;;;;;9.38;7.93;;;18.90;99.90;;;;;;5091494;28;20432;-74
2021/06/22 00:12:32;;;;;;;12.15;8.02;;;18.90;99.90;;;;;;5092194;28;20702;-74
2021/06/22 00:14:58;;;;;;;17.00;11.30;;;18.80;99.90;;;;;;5092065;28;20099;-74
2021/06/22 00:17:24;;;;;;;17.30;10.20;;;18.80;99.90;;;;;;5092246;28;20024;-74
2021/06/22 00:19:49;;;;;;;12.82;8.45;;;18.80;99.90;;;;;;5091325;28;20177;-73
2021/06/22 00:22:15;;;;;;;11.63;8.82;;;18.70;99.90;;;;;;5092288;28;20039;-74
2021/06/22 00:24:41;;;;;;;11.35;10.20;;;18.70;99.90;;;;;;5092926;28;20040;-75
2021/06/22 00:27:07;;;;;;;14.15;8.95;;;18.70;99.90;;;;;;5076338;28;20024;-75
2021/06/22 00:29:33;;;;;;;11.23;8.90;;;18.60;99.90;;;;;;5092218;28;20042;-75
2021/06/22 00:31:58;;;;;;;15.43;8.52;;;18.60;99.90;;;;;;5093481;28;20020;-74
2021/06/22 00:34:24;;;;;;;11.88;8.13;;;18.50;99.90;;;;;;5092697;28;20064;-74
2021/06/22 00:36:50;;;;;;;9.95;7.80;;;18.50;99.90;;;;;;5092177;28;20024;-74
2021/06/22 00:39:15;;;;;;;11.35;7.50;;;18.50;99.90;;;;;;5088507;28;20543;-74
2021/06/22 00:41:41;;;;;;;6.70;6.00;;;18.50;99.90;;;;;;5090763;28;20744;-75
2021/06/22 00:44:10;;;;;;;6.22;5.50;;;18.20;99.90;;;;;;5090945;28;20028;-74
2021/06/22 00:46:37;;;;;;;8.02;6.15;;;18.10;99.90;;;;;;5091124;28;20024;-74
2021/06/22 00:49:04;;;;;;;9.73;6.72;;;18.10;99.90;;;;;;5073280;28;20307;-73
2021/06/22 00:51:29;;;;;;;9.00;7.20;;;18.20;99.90;;;;;;5090648;28;20028;-73
2021/06/22 00:53:56;;;;;;;19.77;8.02;;;18.30;99.90;;;;;;5091435;28;20024;-74
2021/06/22 00:56:24;;;;;;;13.70;8.80;;;18.30;99.90;;;;;;5091160;28;20497;-75
2021/06/22 00:58:50;;;;;;;11.63;8.45;;;18.40;99.90;;;;;;5095337;28;20035;-75
2021/06/22 01:01:17;;;;;;;10.40;7.95;;;18.40;99.90;;;;;;5094884;28;20093;-74
2021/06/22 01:03:42;;;;;;;8.30;7.47;;;18.50;99.90;;;;;;5095217;28;20035;-74
2021/06/22 01:06:10;;;;;;;16.10;7.45;;;18.40;99.90;;;;;;5095465;28;20024;-75
2021/06/22 01:08:36;;;;;;;8.65;6.55;;;18.30;99.90;;;;;;5095336;28;20401;-74
2021/06/22 01:11:03;;;;;;;11.45;7.18;;;18.30;99.90;;;;;;5094657;28;20089;-74
2021/06/22 01:13:29;;;;;;;8.18;6.50;;;18.30;99.90;;;;;;5095072;28;20024;-76
2021/06/22 01:15:54;;;;;;;15.02;8.23;;;18.30;99.90;;;;;;5095349;28;20016;-74
2021/06/22 01:18:20;;;;;;;14.80;10.15;;;18.40;99.90;;;;;;5094517;28;20032;-74
2021/06/22 01:20:46;;;;;;;11.95;9.05;;;18.50;99.90;;;;;;5093987;28;20079;-74
2021/06/22 01:23:12;;;;;;;13.75;11.35;;;18.50;99.90;;;;;;5095060;28;20099;-73
2021/06/22 01:25:38;;;;;;;16.17;9.73;;;18.50;99.90;;;;;;5094838;28;20094;-75
2021/06/22 01:28:04;;;;;;;13.07;7.95;;;18.40;99.90;;;;;;5094817;28;20086;-75
2021/06/22 01:30:31;;;;;;;13.57;8.15;;;18.30;99.90;;;;;;5094315;28;20024;-75
2021/06/22 01:32:58;;;;;;;14.63;9.52;;;18.20;99.90;;;;;;5094868;28;20031;-75
2021/06/22 01:35:25;;;;;;;14.13;8.48;;;18.30;99.90;;;;;;5094759;28;20099;-74
2021/06/22 01:37:57;;;;;;;16.70;10.95;;;18.20;99.90;;;;;;5094839;28;20469;-74
2021/06/22 01:40:24;;;;;;;13.05;8.13;;;18.10;99.90;;;;;;5094008;28;20028;-74
2021/06/22 01:42:50;;;;;;;11.07;7.80;;;18.10;99.90;;;;;;5076544;28;20047;-74
2021/06/22 01:45:16;;;;;;;9.55;8.65;;;18.10;99.90;;;;;;5094841;28;20028;-75
2021/06/22 01:47:43;;;;;;;9.18;8.27;;;18.20;99.90;;;;;;5094708;28;20024;-74
2021/06/22 01:50:10;;;;;;;9.32;8.43;;;18.10;99.90;;;;;;5093714;28;20158;-74
2021/06/22 01:52:36;;;;;;;17.27;8.40;;;18.20;99.90;;;;;;5094289;28;20016;-74
2021/06/22 01:57:48;;;;;;;13.38;8.98;;;18.10;99.90;;;;;;5094357;28;20058;-74
2021/06/22 02:00:15;;;;;;;15.88;9.77;;;18.20;99.90;;;;;;5094054;28;20068;-75
2021/06/22 02:02:41;;;;;;;16.90;9.55;;;18.20;99.90;;;;;;5094474;28;20020;-75
2021/06/22 02:05:07;;;;;;;17.35;8.65;;;18.30;99.90;;;;;;5094180;28;20578;-75
2021/06/22 02:07:33;;;;;;;10.25;7.93;;;18.20;99.90;;;;;;5094192;28;20102;-74
2021/06/22 02:09:58;;;;;;;11.43;8.25;;;18.20;99.90;;;;;;5092334;28;20020;-75
2021/06/22 02:12:24;;;;;;;12.00;7.50;;;18.00;99.90;;;;;;5094473;28;20020;-74
2021/06/22 02:14:49;;;;;;;8.88;7.82;;;17.80;99.90;;;;;;5094299;28;20107;-74
2021/06/22 02:17:15;;;;;;;8.85;7.95;;;17.80;99.90;;;;;;5094168;28;20401;-74
2021/06/22 02:19:41;;;;;;;12.50;7.85;;;17.90;99.90;;;;;;5093246;28;20528;-74
2021/06/22 02:22:06;;;;;;;16.65;8.55;;;17.90;99.90;;;;;;5094045;28;20388;-75
2021/06/22 02:24:32;;;;;;;13.32;8.30;;;17.90;99.90;;;;;;5094111;28;20030;-75
2021/06/22 02:26:58;;;;;;;12.38;8.70;;;17.90;99.90;;;;;;5094105;28;20028;-75
2021/06/22 02:29:23;;;;;;;13.18;9.00;;;17.90;99.90;;;;;;5093574;28;20027;-74
2021/06/22 02:31:49;;;;;;;11.95;8.00;;;17.90;99.90;;;;;;5094605;28;20114;-74
2021/06/22 02:34:15;;;;;;;11.30;8.38;;;17.80;99.90;;;;;;5094290;28;20074;-74
2021/06/22 02:36:40;;;;;;;12.13;8.38;;;17.80;99.90;;;;;;5094230;28;20466;-74
2021/06/22 02:39:06;;;;;;;12.48;9.18;;;17.80;99.90;;;;;;5094053;28;20370;-74
2021/06/22 02:41:32;;;;;;;13.98;8.27;;;17.90;99.90;;;;;;5093730;28;20066;-74
2021/06/22 02:43:57;;;;;;;14.23;10.27;;;17.90;99.90;;;;;;5094184;28;20035;-74
2021/06/22 02:46:23;;;;;;;15.07;11.23;;;18.00;99.90;;;;;;5094031;28;20024;-74
2021/06/22 02:48:48;;;;;;;23.70;11.98;;;18.20;99.90;;;;;;5093895;28;20020;-74
2021/06/22 02:51:14;;;;;;;23.05;14.73;;;18.30;99.90;;;;;;5092783;28;20024;-74
2021/06/22 02:53:40;;;;;;;18.27;12.57;;;18.30;99.90;;;;;;5093689;28;20020;-74
2021/06/22 02:56:06;;;;;;;15.55;12.25;;;18.40;99.90;;;;;;5076335;28;20031;-75
2021/06/22 02:58:32;;;;;;;16.83;11.93;;;18.30;99.90;;;;;;5094628;28;20103;-74
2021/06/22 03:00:57;;;;;;;18.92;13.70;;;18.30;99.90;;;;;;5076545;28;20028;-74
2021/06/22 03:03:23;;;;;;;20.20;14.93;;;18.30;99.90;;;;;;5080096;28;20387;-74
2021/06/22 03:05:49;;;;;;;17.15;14.15;;;18.40;99.90;;;;;;5102604;28;20367;-74
2021/06/22 03:08:14;;;;;;;18.13;12.35;;;18.50;99.90;;;;;;5101549;28;20020;-74
2021/06/22 03:10:40;;;;;;;15.57;10.52;;;18.40;99.90;;;;;;5080716;28;20024;-74
2021/06/22 03:13:05;;;;;;;14.23;11.30;;;18.30;99.90;;;;;;5096412;28;20031;-75
2021/06/22 03:15:31;;;;;;;19.45;12.82;;;18.30;99.90;;;;;;5093915;28;20020;-74
2021/06/22 03:17:57;;;;;;;27.08;13.63;;;18.40;99.90;;;;;;5093702;28;20458;-75
2021/06/22 03:20:23;;;;;;;20.25;14.52;;;18.50;99.90;;;;;;5091537;28;20032;-74
2021/06/22 03:22:49;;;;;;;21.52;15.43;;;18.50;99.90;;;;;;5093348;28;20389;-74
2021/06/22 03:25:15;;;;;;;16.95;14.68;;;18.50;99.90;;;;;;5093135;28;20162;-74
2021/06/22 03:27:41;;;;;;;16.77;14.23;;;18.60;99.90;;;;;;5092780;28;20031;-74
2021/06/22 03:30:09;;;;;;;17.02;15.20;;;18.50;99.90;;;;;;5092475;28;20020;-73
2021/06/22 03:32:36;;;;;;;17.05;14.65;;;18.50;99.90;;;;;;5092867;28;20094;-73
2021/06/22 03:35:04;;;;;;;13.85;12.18;;;18.50;99.90;;;;;;5092497;28;20027;-73
2021/06/22 03:37:30;;;;;;;15.18;12.57;;;18.40;99.90;;;;;;5092714;28;20028;-73
2021/06/22 03:39:56;;;;;;;22.73;13.10;;;18.40;99.90;;;;;;5091943;28;20028;-73
2021/06/22 03:42:22;;;;;;;12.77;11.55;;;18.40;99.90;;;;;;5086000;28;20032;-71
2021/06/22 03:44:48;;;;;;;12.45;11.25;;;18.40;99.90;;;;;;5088829;28;20073;-73
2021/06/22 03:47:13;;;;;;;15.85;12.32;;;18.40;99.90;;;;;;5091679;28;20020;-74
2021/06/22 03:49:39;;;;;;;14.40;11.48;;;18.40;99.90;;;;;;5090709;28;20039;-71
2021/06/22 03:52:05;;;;;;;15.15;11.02;;;18.40;99.90;;;;;;5091962;28;20012;-71
2021/06/22 03:54:31;;;;;;;13.80;10.77;;;18.40;99.90;;;;;;5091646;28;20024;-72
2021/06/22 03:56:56;;;;;;;15.25;9.88;;;18.40;99.90;;;;;;5091957;28;20032;-72
2021/06/22 03:59:22;;;;;;;13.80;9.63;;;18.40;99.90;;;;;;5091422;28;20366;-72
2021/06/22 04:01:48;;;;;;;11.70;10.50;;;18.50;99.90;;;;;;5091612;28;20028;-73
2021/06/22 04:04:13;;;;;;;18.33;12.73;;;18.60;99.90;;;;;;5091199;28;20364;-73
2021/06/22 04:06:39;;;;;;;15.30;13.18;;;18.60;99.90;;;;;;5091609;28;20031;-72
2021/06/22 04:09:05;;;;;;;12.50;11.25;;;18.60;99.90;;;;;;5073734;28;20126;-73
2021/06/22 04:11:31;;;;;;;17.98;10.55;;;18.60;99.90;;;;;;5091107;28;20016;-72
2021/06/22 04:13:56;;;;;;;11.07;9.88;;;18.50;99.90;;;;;;5091263;28;20105;-74
2021/06/22 04:16:22;;;;;;;16.35;11.98;;;18.50;99.90;;;;;;5091831;28;20027;-72
2021/06/22 04:18:48;;;;;;;16.25;12.48;;;18.50;99.90;;;;;;5091510;28;20081;-72
2021/06/22 04:21:13;;;;;;;13.55;11.55;;;18.60;99.90;;;;;;5090870;28;20017;-74
2021/06/22 04:23:39;;;;;;;20.63;13.95;;;18.60;99.90;;;;;;5090873;28;20114;-73
2021/06/22 04:26:05;;;;;;;22.48;15.52;;;18.70;99.90;;;;;;5091500;28;20023;-73
2021/06/22 04:28:31;;;;;;;17.60;13.95;;;18.70;99.90;;;;;;5091812;28;20016;-73
2021/06/22 04:30:56;;;;;;;16.48;12.88;;;18.60;99.90;;;;;;5090865;28;20399;-72
2021/06/22 04:33:23;;;;;;;15.52;13.48;;;18.60;99.90;;;;;;5091004;28;20074;-73
2021/06/22 04:35:49;;;;;;;13.27;11.05;;;18.70;99.90;;;;;;5090927;28;20024;-72
2021/06/22 04:38:15;;;;;;;18.15;12.70;;;18.70;99.90;;;;;;5073137;28;20024;-73
2021/06/22 04:40:40;;;;;;;14.48;12.75;;;18.60;99.90;;;;;;5090700;28;20438;-72
2021/06/22 04:43:07;;;;;;;11.93;10.77;;;18.70;99.90;;;;;;5091262;28;20077;-72
2021/06/22 04:45:33;;;;;;;10.98;8.55;;;18.70;99.90;;;;;;5090899;28;20393;-70
2021/06/22 04:48:01;;;;;;;12.63;8.88;;;18.70;99.90;;;;;;5091005;28;20561;-72
2021/06/22 04:50:27;;;;;;;11.23;8.80;;;18.70;99.90;;;;;;5091859;28;20028;-72
2021/06/22 04:52:53;;;;;;;9.30;8.38;;;18.80;99.90;;;;;;5072815;28;20026;-73
2021/06/22 04:55:25;;;;;;;15.85;10.68;;;18.90;99.90;;;;;;5091270;28;20032;-73
2021/06/22 04:57:50;;;;;;;8.20;7.30;;;19.00;99.90;;;;;;5090951;28;20097;-74
2021/06/22 05:00:17;;;;;;;13.77;8.90;;;18.90;99.90;;;;;;5090539;28;20309;-74
2021/06/22 05:02:44;;;;;;;11.40;8.63;;;18.80;99.90;;;;;;5073268;28;20024;-74
2021/06/22 05:05:11;;;;;;;12.02;10.65;;;18.90;99.90;;;;;;5091509;28;20050;-74
2021/06/22 05:07:37;;;;;;;17.40;12.10;;;19.00;99.90;;;;;;5091815;28;20020;-74
2021/06/22 05:10:03;;;;;;;20.70;12.52;;;19.10;99.90;;;;;;5091047;28;20016;-74
2021/06/22 05:12:29;;;;;;;10.85;9.07;;;19.10;99.90;;;;;;5092551;28;20043;-74
2021/06/22 05:14:54;;;;;;;11.85;8.70;;;19.10;99.90;;;;;;5089830;28;20492;-74
2021/06/22 05:17:20;;;;;;;12.85;8.02;;;19.00;99.90;;;;;;5091187;28;20032;-73
2021/06/22 05:19:46;;;;;;;9.15;7.03;;;19.00;99.90;;;;;;5090470;28;20028;-74
2021/06/22 05:22:13;;;;;;;9.10;7.30;;;19.00;99.90;;;;;;5091262;28;20058;-74
2021/06/22 05:24:38;;;;;;;8.40;6.72;;;19.20;99.90;;;;;;5090241;28;20020;-73
2021/06/22 05:27:04;;;;;;;8.93;6.55;;;19.30;99.90;;;;;;5072590;28;20029;-74
2021/06/22 05:29:30;;;;;;;9.35;5.93;;;19.40;99.90;;;;;;5069654;28;20040;-73
2021/06/22 05:31:56;;;;;;;7.85;5.70;;;19.40;99.90;;;;;;5070302;28;20149;-73
2021/06/22 05:34:21;;;;;;;9.32;5.75;;;19.50;99.90;;;;;;5070314;28;20024;-73
2021/06/22 05:36:47;;;;;;;9.13;6.15;;;19.60;99.90;;;;;;5070362;28;20116;-73
2021/06/22 05:39:13;;;;;;;7.25;5.50;;;19.60;99.90;;;;;;5089564;28;20079;-73
2021/06/22 05:41:39;;;;;;;5.78;5.18;;;19.60;99.90;;;;;;5090349;28;20432;-74
2021/06/22 05:44:05;;;;;;;8.55;5.32;;;19.50;99.90;;;;;;5092470;28;20067;-73
2021/06/22 05:46:31;;;;;;;11.90;5.72;;;19.40;99.90;;;;;;5093295;28;20682;-74
2021/06/22 05:48:57;;;;;;;6.90;6.38;;;19.60;99.90;;;;;;5094184;28;20514;-72
2021/06/22 05:51:24;;;;;;;6.88;5.60;;;19.80;99.90;;;;;;5093864;28;20024;-72
2021/06/22 05:53:50;;;;;;;8.43;4.55;;;19.70;99.90;;;;;;5093559;28;20066;-69
2021/06/22 05:56:16;;;;;;;6.18;4.47;;;19.80;99.90;;;;;;5080213;28;20401;-70
2021/06/22 05:58:41;;;;;;;8.80;4.85;;;19.90;99.90;;;;;;5105287;22;20062;-71
2021/06/22 06:01:07;;;;;;;5.57;4.28;;;19.90;99.90;;;;;;5061322;28;20028;-72
2021/06/22 06:03:33;;;;;;;7.28;4.45;;;20.00;99.90;;;;;;5061913;28;20339;-76
2021/06/22 06:06:00;;;;;;;5.45;4.47;;;20.10;99.90;;;;;;5065151;28;20025;-75
2021/06/22 06:08:25;;;;;;;5.35;4.75;;;20.10;99.90;;;;;;5058215;28;20033;-76
2021/06/22 06:10:51;;;;;;;4.13;3.83;;;20.30;99.90;;;;;;5061130;28;20021;-78
2021/06/22 06:13:17;;;;;;;5.35;3.80;;;20.20;99.90;;;;;;5075577;28;20025;-75
2021/06/22 06:15:42;;;;;;;4.95;4.57;;;20.10;99.90;;;;;;5087209;28;20024;-78
2021/06/22 06:18:08;;;;;;;9.32;4.18;;;20.20;99.90;;;;;;5074252;28;20035;-77
2021/06/22 06:20:34;;;;;;;3.85;3.55;;;20.20;99.90;;;;;;5074513;28;20418;-75
2021/06/22 06:22:59;;;;;;;6.53;3.40;;;20.10;99.90;;;;;;5060177;28;20047;-77
2021/06/22 06:25:25;;;;;;;3.85;3.28;;;20.10;99.90;;;;;;5071961;28;20039;-76
2021/06/22 06:30:24;;;;;;;6.80;3.42;;;20.00;99.90;;;;;;5078253;28;20112;-79
2021/06/22 06:32:51;;;;;;;5.78;3.17;;;20.10;99.90;;;;;;5077304;28;20028;-78
2021/06/22 06:35:19;;;;;;;7.88;2.97;;;20.20;99.90;;;;;;5076480;28;20126;-78
2021/06/22 06:37:44;;;;;;;5.30;3.05;;;20.30;99.90;;;;;;5075636;28;20027;-78
2021/06/22 06:40:11;;;;;;;6.18;2.90;;;20.60;99.90;;;;;;5076272;28;20025;-77
2021/06/22 06:42:38;;;;;;;3.13;2.83;;;20.30;99.90;;;;;;5073497;28;20115;-78
2021/06/22 06:45:06;;;;;;;3.10;2.47;;;20.30;99.90;;;;;;5075800;28;20041;-78
2021/06/22 06:47:32;;;;;;;4.93;2.05;;;20.60;99.90;;;;;;5066282;28;20410;-78
2021/06/22 06:49:57;;;;;;;3.20;2.45;;;20.40;99.90;;;;;;5057448;28;20021;-77
2021/06/22 06:52:23;;;;;;;3.00;2.70;;;20.30;99.90;;;;;;5054100;28;20032;-79
2021/06/22 06:54:49;;;;;;;3.70;2.20;;;20.90;99.90;;;;;;5054713;28;20088;-78
2021/06/22 06:57:15;;;;;;;3.40;2.17;;;21.00;99.90;;;;;;5053998;28;20481;-77
2021/06/22 06:59:40;;;;;;;5.53;2.35;;;21.00;99.90;;;;;;5071649;28;20049;-77
2021/06/22 07:02:06;;;;;;;3.03;1.77;;;20.90;99.90;;;;;;5055977;28;20025;-78
2021/06/22 07:04:33;;;;;;;2.85;1.77;;;20.80;99.90;;;;;;5074722;28;20628;-78
2021/06/22 07:06:59;;;;;;;3.83;1.52;;;20.90;99.90;;;;;;5056801;28;20025;-78
2021/06/22 07:09:25;;;;;;;4.10;1.83;;;21.00;99.90;;;;;;5074046;28;20020;-77
2021/06/22 07:11:50;;;;;;;3.63;1.77;;;21.00;99.90;;;;;;5075233;28;20032;-77
2021/06/22 07:14:16;;;;;;;2.25;1.63;;;21.10;99.90;;;;;;5092239;28;20073;-78
2021/06/22 07:16:42;;;;;;;5.25;1.75;;;21.20;99.90;;;;;;5095670;28;20024;-77
2021/06/22 07:19:09;;;;;;;3.03;1.63;;;20.90;99.90;;;;;;5095762;28;20374;-77
2021/06/22 07:21:35;;;;;;;6.25;2.55;;;20.60;99.90;;;;;;5100799;28;20481;-77
2021/06/22 07:24:00;;;;;;;1.60;1.50;;;20.50;99.90;;;;;;5072645;28;20073;-76
2021/06/22 07:26:26;;;;;;;2.42;1.80;;;20.30;99.90;;;;;;5055599;28;20020;-76
2021/06/22 07:28:52;;;;;;;4.47;1.98;;;20.30;99.90;;;;;;5073431;28;20020;-77
2021/06/22 07:31:18;;;;;;;1.90;1.80;;;20.40;99.90;;;;;;5073625;28;20043;-78
2021/06/22 07:33:44;;;;;;;4.35;2.17;;;20.50;99.90;;;;;;5074496;28;20028;-77
2021/06/22 07:36:09;;;;;;;3.85;2.17;;;20.40;99.90;;;;;;5077946;28;20375;-77
2021/06/22 07:38:36;;;;;;;2.63;2.22;;;20.60;99.90;;;;;;5102390;28;20059;-76
2021/06/22 07:41:02;;;;;;;5.65;2.45;;;20.30;99.90;;;;;;5086533;28;20026;-77
2021/06/22 07:43:28;;;;;;;7.38;2.40;;;20.40;99.90;;;;;;5106188;28;20024;-77
2021/06/22 07:45:54;;;;;;;4.30;1.98;;;20.30;99.90;;;;;;5102042;28;20096;-77
2021/06/22 07:48:20;;;;;;;3.17;2.17;;;20.40;99.90;;;;;;5101501;28;20047;-78
2021/06/22 07:50:45;;;;;;;5.97;2.42;;;20.50;99.90;;;;;;5101318;28;20045;-76
2021/06/22 07:53:11;;;;;;;5.57;2.40;;;20.70;99.90;;;;;;5088780;28;20118;-77
2021/06/22 07:55:37;;;;;;;5.40;2.30;;;20.60;99.90;;;;;;5113463;28;20035;-76
2021/06/22 07:58:03;;;;;;;6.50;2.50;;;20.60;99.90;;;;;;5113768;28;20055;-77
2021/06/22 08:00:43;;;;;;;6.45;2.65;;;20.90;99.90;;;;;;5112887;28;20032;-77
2021/06/22 08:03:11;;;;;;;7.78;2.40;;;20.90;99.90;;;;;;5097957;28;20438;-78
2021/06/22 08:05:37;;;;;;;1.92;1.83;;;21.00;99.90;;;;;;5114668;28;20102;-75
2021/06/22 08:08:04;;;;;;;5.95;2.42;;;21.20;99.90;;;;;;5096596;28;20073;-74
2021/06/22 08:10:31;;;;;;;4.50;1.73;;;21.20;99.90;;;;;;5116576;28;20070;-74
2021/06/22 08:12:57;;;;;;;2.95;1.88;;;20.80;99.90;;;;;;5096987;28;20044;-75
2021/06/22 08:15:24;;;;;;;4.00;2.10;;;21.00;99.90;;;;;;5095245;28;20439;-74
2021/06/22 08:17:49;;;;;;;8.15;2.17;;;20.90;99.90;;;;;;5095504;28;20080;-76
2021/06/22 08:20:15;;;;;;;4.18;2.33;;;21.00;99.90;;;;;;5076939;28;20020;-77
2021/06/22 08:22:41;;;;;;;2.53;1.90;;;21.30;99.90;;;;;;5078060;28;20028;-78
2021/06/22 08:25:08;;;;;;;5.47;2.17;;;21.50;99.90;;;;;;5104120;28;20095;-75
2021/06/22 08:27:34;;;;;;;2.90;1.70;;;21.80;99.90;;;;;;5099700;28;20069;-76
2021/06/22 08:29:59;;;;;;;4.63;1.95;;;21.80;99.90;;;;;;5098299;28;20027;-75
2021/06/22 08:32:25;;;;;;;3.72;2.15;;;21.70;99.90;;;;;;5114043;28;20035;-75
2021/06/22 08:34:51;;;;;;;5.22;2.35;;;21.30;99.90;;;;;;5115782;28;20035;-75
2021/06/22 08:37:17;;;;;;;5.53;1.90;;;21.20;99.90;;;;;;5121096;28;20087;-76
2021/06/22 08:39:42;;;;;;;5.25;1.95;;;20.90;99.90;;;;;;5125322;28;20032;-76
2021/06/22 08:42:10;;;;;;;4.22;1.85;;;21.10;99.90;;;;;;5121266;28;20106;-76
2021/06/22 08:44:37;;;;;;;2.97;2.20;;;21.40;99.90;;;;;;5117371;28;20020;-76
2021/06/22 08:47:03;;;;;;;3.25;1.85;;;21.80;99.90;;;;;;5121201;28;20084;-74
2021/06/22 08:49:31;;;;;;;3.03;1.77;;;22.00;99.90;;;;;;5116460;28;20023;-75
2021/06/22 08:51:58;;;;;;;4.07;2.20;;;22.00;99.90;;;;;;5119573;28;20020;-75
2021/06/22 08:54:23;;;;;;;2.70;1.80;;;21.80;99.90;;;;;;5117500;28;20027;-75
2021/06/22 08:56:49;;;;;;;6.78;2.08;;;21.60;99.90;;;;;;5118887;28;20584;-75
2021/06/22 08:59:15;;;;;;;6.18;2.13;;;21.40;99.90;;;;;;5097951;28;20035;-74
2021/06/22 09:01:40;;;;;;;3.95;2.33;;;21.70;99.90;;;;;;5113922;28;20020;-75
2021/06/22 09:04:06;;;;;;;4.60;2.30;;;21.70;99.90;;;;;;5120507;28;20031;-75
2021/06/22 09:06:42;;;;;;;2.53;1.92;;;21.40;99.90;;;;;;5120227;28;20028;-75
2021/06/22 09:09:09;;;;;;;5.03;2.65;;;21.20;99.90;;;;;;5119043;28;20020;-75
2021/06/22 09:11:35;;;;;;;3.47;2.22;;;20.70;99.90;;;;;;5113230;28;20039;-76
2021/06/22 09:14:03;;;;;;;2.28;2.08;;;20.50;99.90;;;;;;5105550;28;20035;-77
2021/06/22 09:16:30;;;;;;;5.15;2.35;;;20.50;99.90;;;;;;5114758;28;20031;-76
2021/06/22 09:19:07;;;;;;;4.82;2.35;;;20.60;99.90;;;;;;5117826;28;20069;-76
2021/06/22 09:21:46;;;;;;;5.13;2.45;;;20.50;99.90;;;;;;5101821;28;20070;-75
2021/06/22 09:24:17;;;;;;;7.15;2.65;;;20.40;99.90;;;;;;5119616;28;20051;-76
2021/06/22 09:26:46;;;;;;;3.13;2.30;;;20.40;99.90;;;;;;5120654;28;20467;-75
2021/06/22 09:29:14;;;;;;;3.33;2.47;;;20.40;99.90;;;;;;5120437;28;20020;-75
2021/06/22 09:31:58;;;;;;;6.88;2.53;;;20.60;99.90;;;;;;5119975;28;20118;-76
2021/06/22 09:34:25;;;;;;;5.47;2.80;;;20.70;99.90;;;;;;5120233;28;20102;-76
2021/06/22 09:36:53;;;;;;;2.58;2.38;;;21.00;99.90;;;;;;5120805;28;20098;-75
2021/06/22 09:39:20;;;;;;;3.38;2.15;;;21.00;99.90;;;;;;5119034;28;20481;-75
2021/06/22 09:41:47;;;;;;;3.72;2.40;;;20.90;99.90;;;;;;5122568;28;20048;-76
2021/06/22 09:44:15;;;;;;;5.47;2.13;;;20.70;99.90;;;;;;5123327;28;20027;-76
2021/06/22 09:46:46;;;;;;;4.30;1.85;;;21.00;99.90;;;;;;5124864;28;20019;-76
2021/06/22 09:49:24;;;;;;;5.90;1.88;;;21.20;99.90;;;;;;5107594;28;20088;-76
2021/06/22 09:52:08;;;;;;;3.28;1.73;;;21.00;99.90;;;;;;5104607;28;20021;-77
2021/06/22 09:54:44;;;;;;;2.35;1.80;;;20.70;99.90;;;;;;5102058;28;20027;-75
2021/06/22 09:57:16;;;;;;;4.20;1.90;;;20.80;99.90;;;;;;5098409;28;20024;-75
2021/06/22 09:59:56;;;;;;;4.07;1.83;;;20.90;99.90;;;;;;5103744;28;20036;-76
2021/06/22 10:02:26;;;;;;;6.10;1.95;;;21.10;99.90;;;;;;5109594;28;20031;-75
2021/06/22 10:05:00;;;;;;;4.43;2.10;;;21.30;99.90;;;;;;5110629;28;20083;-76
2021/06/22 10:07:27;;;;;;;4.25;2.47;;;20.80;99.90;;;;;;5092891;28;20031;-76
2021/06/22 10:09:58;;;;;;;5.10;2.05;;;20.70;99.90;;;;;;5110337;28;20020;-76
2021/06/22 10:12:29;;;;;;;3.25;2.10;;;20.90;99.90;;;;;;5092893;28;20047;-75
2021/06/22 10:14:59;;;;;;;5.07;2.13;;;21.20;99.90;;;;;;5122836;28;20027;-75
2021/06/22 10:17:27;;;;;;;3.78;1.48;;;21.60;99.90;;;;;;5126620;28;20393;-76
2021/06/22 10:19:56;;;;;;;3.28;1.50;;;22.00;99.90;;;;;;5125353;28;20019;-75
2021/06/22 10:22:27;;;;;;;5.63;1.20;;;22.30;99.90;;;;;;5124452;28;20028;-75
2021/06/22 10:24:54;;;;;;;2.25;1.30;;;22.70;99.90;;;;;;5122780;28;20393;-75
2021/06/22 10:27:22;;;;;;;4.03;1.38;;;22.60;99.90;;;;;;5121954;28;20030;-75
2021/06/22 10:29:52;;;;;;;3.22;1.10;;;22.50;99.90;;;;;;5100622;28;20031;-76
2021/06/22 10:32:21;;;;;;;1.83;1.10;;;22.60;99.90;;;;;;5121443;28;20016;-75
2021/06/22 10:34:51;;;;;;;2.05;1.10;;;22.10;99.90;;;;;;5118543;28;20532;-76
2021/06/22 10:37:23;;;;;;;3.42;1.40;;;22.80;99.90;;;;;;5097641;28;20383;-74
2021/06/22 10:39:51;;;;;;;3.08;1.05;;;23.40;99.90;;;;;;5116688;28;20024;-72
2021/06/22 10:42:17;;;;;;;1.17;0.95;;;23.10;99.90;;;;;;5115049;28;20494;-73
2021/06/22 10:44:49;;;;;;;1.63;1.00;;;23.50;99.90;;;;;;5113471;28;20027;-72
2021/06/22 10:47:28;;;;;;;2.92;1.30;;;23.90;99.90;;;;;;5115555;28;20111;-72
2021/06/22 10:50:21;;;;;;;2.85;1.15;;;23.70;99.90;;;;;;5115226;28;20034;-74
2021/06/22 10:52:51;;;;;;;4.35;1.50;;;22.90;99.90;;;;;;5117214;28;20110;-73
2021/06/22 10:55:27;;;;;;;1.10;1.00;;;22.60;99.90;;;;;;5097107;28;20477;-72
2021/06/22 10:58:19;;;;;;;1.50;1.00;;;22.60;99.90;;;;;;5113837;28;20034;-73
2021/06/22 11:00:49;;;;;;;3.70;1.00;;;22.70;99.90;;;;;;5112401;28;20038;-73
2021/06/22 11:03:31;;;;;;;1.25;1.15;;;22.70;99.90;;;;;;5095960;28;20036;-74
2021/06/22 11:06:05;;;;;;;2.05;1.10;;;22.30;99.90;;;;;;5095695;28;20035;-73
2021/06/22 11:08:34;;;;;;;1.85;1.10;;;22.20;99.90;;;;;;5113485;28;20103;-71
2021/06/22 11:10:59;;;;;;;2.13;1.20;;;22.10;99.90;;;;;;5113013;28;20020;-74
2021/06/22 11:13:31;;;;;;;4.45;1.15;;;22.30;99.90;;;;;;5091514;28;20028;-71
2021/06/22 11:15:57;;;;;;;;;;;21.70;99.90;;;;;;5109621;28;20021;-72
2021/06/22 11:18:23;;;;;;;1.83;1.10;;;21.50;99.90;;;;;;5092837;28;19908;-73
2021/06/22 11:20:54;;;;;;;1.88;1.33;;;21.30;99.90;;;;;;5092040;28;20481;-70
2021/06/22 11:23:23;;;;;;;1.80;1.20;;;21.50;99.90;;;;;;5092556;28;20040;-75
2021/06/22 11:25:59;;;;;;;2.58;1.00;;;21.60;99.90;;;;;;5092692;28;20032;-75
2021/06/22 11:28:26;;;;;;;1.67;1.00;;;21.30;99.90;;;;;;5092969;28;20016;-75
2021/06/22 11:30:53;;;;;;;2.08;1.05;;;21.30;99.90;;;;;;5109754;28;20023;-75
2021/06/22 11:34:02;;;;;;;2.25;1.40;;;21.10;99.90;;;;;;5113425;28;20023;-77
2021/06/22 11:36:28;;;;;;;3.53;1.20;;;21.00;99.90;;;;;;4971989;28;20106;-76
2021/06/22 11:39:09;;;;;;;1.60;0.85;;;21.20;99.90;;;;;;5040233;28;20566;-76
2021/06/22 11:41:36;;;;;;;2.50;1.33;;;21.10;99.90;;;;;;5072244;28;20100;-75
2021/06/22 11:44:07;;;;;;;2.83;1.33;;;21.20;99.90;;;;;;5072123;28;20016;-76
2021/06/22 11:46:40;;;;;;;3.13;1.17;;;21.20;99.90;;;;;;5072402;28;20024;-77
2021/06/22 11:49:07;;;;;;;4.72;1.45;;;21.30;99.90;;;;;;5103638;28;20421;-75
2021/06/22 11:51:47;;;;;;;3.88;1.55;;;21.30;99.90;;;;;;5094217;28;20107;-75
2021/06/22 11:54:20;;;;;;;1.63;1.20;;;21.30;99.90;;;;;;5102634;28;20102;-74
2021/06/22 11:56:47;;;;;;;3.92;1.33;;;21.30;99.90;;;;;;5094700;28;20024;-77
2021/06/22 11:59:13;;;;;;;2.28;1.25;;;21.20;99.90;;;;;;5096101;22;20040;-76
2021/06/22 12:01:46;;;;;;;2.85;1.38;;;20.80;99.90;;;;;;5075815;28;20021;-73
2021/06/22 12:04:12;;;;;;;3.40;1.70;;;20.50;99.90;;;;;;5078251;28;20450;-75
2021/06/22 12:06:41;;;;;;;3.92;1.48;;;20.60;99.90;;;;;;5066201;28;20039;-75
2021/06/22 12:09:20;;;;;;;212.57;24.05;;;20.80;99.90;;;;;;5073372;28;20027;-75
2021/06/22 12:11:47;;;;;;;97.32;9.75;;;20.60;99.90;;;;;;5064631;28;20432;-75
2021/06/22 12:14:13;;;;;;;15.00;3.10;;;20.50;99.90;;;;;;5052984;28;20013;-74
2021/06/22 12:16:40;;;;;;;7.43;1.80;;;20.60;99.90;;;;;;5052378;28;20025;-76
2021/06/22 12:19:13;;;;;;;7.03;2.05;;;20.60;99.90;;;;;;5056966;28;20035;-74
2021/06/22 12:21:39;;;;;;;3.83;1.90;;;20.60;99.90;;;;;;5071486;28;20016;-75
2021/06/22 12:24:07;;;;;;;12.25;2.80;;;20.80;99.90;;;;;;5054345;28;20024;-74
2021/06/22 12:26:36;;;;;;;7.93;2.47;;;21.00;99.90;;;;;;5072678;28;20032;-75
2021/06/22 12:29:02;;;;;;;5.82;2.72;;;21.20;99.90;;;;;;5071982;28;20028;-77
2021/06/22 12:31:28;;;;;;;5.70;2.17;;;21.00;99.90;;;;;;5071774;28;20025;-75
2021/06/22 12:34:00;;;;;;;5.00;2.15;;;21.20;99.90;;;;;;5072595;28;20100;-76
2021/06/22 12:36:34;;;;;;;3.15;2.10;;;22.40;99.90;;;;;;5072694;28;20100;-75
2021/06/22 12:39:04;;;;;;;2.72;1.40;;;23.40;99.90;;;;;;5073223;28;20040;-75
2021/06/22 12:41:30;;;;;;;6.35;1.40;;;23.60;99.90;;;;;;5072507;28;20424;-74
2021/06/22 12:43:56;;;;;;;2.75;1.55;;;24.30;99.90;;;;;;5072058;28;20040;-77
2021/06/22 12:46:27;;;;;;;5.00;1.15;;;25.50;99.90;;;;;;5057294;28;20032;-78